sensor_id;sensor_type;location;lat;lon;timestamp;P1;durP1;ratioP1;P2;durP2;ratioP2
18661;SDS011;61528;49.456;11.098;2022-08-02T00:01:21;4.80;;;3.93;;
18661;SDS011;61528;49.456;11.098;2022-08-02T00:03:47;4.60;;;4.20;;
18661;SDS011;61528;49.456;11.098;2022-08-02T00:06:13;4.73;;;4.20;;
18661;SDS011;61528;49.456;11.098;2022-08-02T00:08:39;4.50;;;4.10;;
18661;SDS011;61528;49.456;11.098;2022-08-02T00:11:04;4.23;;;3.60;;
18661;SDS011;61528;49.456;11.098;2022-08-02T00:13:30;4.77;;;3.80;;
18661;SDS011;61528;49.456;11.098;2022-08-02T00:15:56;3.57;;;3.27;;
18661;SDS011;61528;49.456;11.098;2022-08-02T00:18:22;4.10;;;3.80;;
18661;SDS011;61528;49.456;11.098;2022-08-02T00:20:48;4.40;;;4.00;;
18661;SDS011;61528;49.456;11.098;2022-08-02T00:23:13;4.27;;;3.30;;
18661;SDS011;61528;49.456;11.098;2022-08-02T00:25:39;4.20;;;3.80;;
18661;SDS011;61528;49.456;11.098;2022-08-02T00:28:06;3.77;;;3.47;;
18661;SDS011;61528;49.456;11.098;2022-08-02T00:30:32;4.17;;;3.87;;
18661;SDS011;61528;49.456;11.098;2022-08-02T00:32:58;4.00;;;3.70;;
18661;SDS011;61528;49.456;11.098;2022-08-02T00:35:24;4.33;;;3.90;;
18661;SDS011;61528;49.456;11.098;2022-08-02T00:37:50;3.73;;;3.43;;
18661;SDS011;61528;49.456;11.098;2022-08-02T00:40:19;4.67;;;4.27;;
18661;SDS011;61528;49.456;11.098;2022-08-02T00:42:48;4.40;;;4.00;;
18661;SDS011;61528;49.456;11.098;2022-08-02T00:45:35;6.80;;;4.03;;
18661;SDS011;61528;49.456;11.098;2022-08-02T00:48:02;4.73;;;3.73;;
18661;SDS011;61528;49.456;11.098;2022-08-02T00:50:30;4.63;;;4.23;;
18661;SDS011;61528;49.456;11.098;2022-08-02T00:52:56;6.57;;;4.10;;
18661;SDS011;61528;49.456;11.098;2022-08-02T00:55:22;4.23;;;3.83;;
18661;SDS011;61528;49.456;11.098;2022-08-02T00:57:48;4.30;;;4.00;;
18661;SDS011;61528;49.456;11.098;2022-08-02T01:00:14;3.97;;;3.67;;
18661;SDS011;61528;49.456;11.098;2022-08-02T01:02:41;4.57;;;4.10;;
18661;SDS011;61528;49.456;11.098;2022-08-02T01:05:07;4.33;;;3.93;;
18661;SDS011;61528;49.456;11.098;2022-08-02T01:07:33;4.10;;;3.53;;
18661;SDS011;61528;49.456;11.098;2022-08-02T01:09:58;3.83;;;3.40;;
18661;SDS011;61528;49.456;11.098;2022-08-02T01:12:25;6.30;;;4.10;;
18661;SDS011;61528;49.456;11.098;2022-08-02T01:14:52;3.90;;;3.60;;
18661;SDS011;61528;49.456;11.098;2022-08-02T01:28:38;4.10;;;3.80;;
18661;SDS011;61528;49.456;11.098;2022-08-02T01:33:44;5.27;;;3.63;;
18661;SDS011;61528;49.456;11.098;2022-08-02T01:36:43;4.90;;;4.40;;
18661;SDS011;61528;49.456;11.098;2022-08-02T01:39:12;4.10;;;3.80;;
18661;SDS011;61528;49.456;11.098;2022-08-02T01:41:43;4.13;;;3.63;;
18661;SDS011;61528;49.456;11.098;2022-08-02T01:44:11;4.60;;;3.63;;
18661;SDS011;61528;49.456;11.098;2022-08-02T01:46:40;4.53;;;3.67;;
18661;SDS011;61528;49.456;11.098;2022-08-02T01:49:08;4.20;;;3.67;;
18661;SDS011;61528;49.456;11.098;2022-08-02T01:51:36;4.13;;;3.83;;
18661;SDS011;61528;49.456;11.098;2022-08-02T01:54:23;4.03;;;3.73;;
18661;SDS011;61528;49.456;11.098;2022-08-02T01:56:52;3.87;;;3.47;;
18661;SDS011;61528;49.456;11.098;2022-08-02T01:59:20;4.27;;;3.67;;
18661;SDS011;61528;49.456;11.098;2022-08-02T02:01:48;5.03;;;4.17;;
18661;SDS011;61528;49.456;11.098;2022-08-02T02:04:16;4.40;;;4.00;;
18661;SDS011;61528;49.456;11.098;2022-08-02T02:06:44;4.30;;;3.90;;
18661;SDS011;61528;49.456;11.098;2022-08-02T02:09:12;4.97;;;4.57;;
18661;SDS011;61528;49.456;11.098;2022-08-02T02:11:40;4.73;;;4.20;;
18661;SDS011;61528;49.456;11.098;2022-08-02T02:14:10;4.30;;;3.90;;
18661;SDS011;61528;49.456;11.098;2022-08-02T02:16:38;4.23;;;3.90;;
18661;SDS011;61528;49.456;11.098;2022-08-02T02:19:06;4.00;;;3.70;;
18661;SDS011;61528;49.456;11.098;2022-08-02T02:21:35;4.50;;;3.70;;
18661;SDS011;61528;49.456;11.098;2022-08-02T02:24:03;4.43;;;3.90;;
18661;SDS011;61528;49.456;11.098;2022-08-02T02:26:29;4.43;;;4.03;;
18661;SDS011;61528;49.456;11.098;2022-08-02T02:28:57;6.87;;;4.50;;
18661;SDS011;61528;49.456;11.098;2022-08-02T02:31:28;4.43;;;4.03;;
18661;SDS011;61528;49.456;11.098;2022-08-02T02:34:03;4.83;;;4.40;;
18661;SDS011;61528;49.456;11.098;2022-08-02T02:36:34;4.40;;;4.00;;
18661;SDS011;61528;49.456;11.098;2022-08-02T02:39:06;6.03;;;4.60;;
18661;SDS011;61528;49.456;11.098;2022-08-02T02:41:35;5.23;;;4.47;;
18661;SDS011;61528;49.456;11.098;2022-08-02T02:44:02;4.37;;;3.97;;
18661;SDS011;61528;49.456;11.098;2022-08-02T02:46:29;4.90;;;4.33;;
18661;SDS011;61528;49.456;11.098;2022-08-02T02:48:56;4.60;;;4.20;;
18661;SDS011;61528;49.456;11.098;2022-08-02T02:51:23;4.67;;;4.27;;
18661;SDS011;61528;49.456;11.098;2022-08-02T02:53:50;5.17;;;4.57;;
18661;SDS011;61528;49.456;11.098;2022-08-02T02:56:16;5.40;;;4.93;;
18661;SDS011;61528;49.456;11.098;2022-08-02T02:58:43;4.33;;;3.93;;
18661;SDS011;61528;49.456;11.098;2022-08-02T03:01:10;5.20;;;4.30;;
18661;SDS011;61528;49.456;11.098;2022-08-02T03:03:51;5.97;;;4.30;;
18661;SDS011;61528;49.456;11.098;2022-08-02T03:06:18;5.23;;;4.73;;
18661;SDS011;61528;49.456;11.098;2022-08-02T03:08:44;5.70;;;4.63;;
18661;SDS011;61528;49.456;11.098;2022-08-02T03:11:11;4.73;;;4.17;;
18661;SDS011;61528;49.456;11.098;2022-08-02T03:13:37;4.70;;;4.30;;
18661;SDS011;61528;49.456;11.098;2022-08-02T03:16:04;3.70;;;3.40;;
18661;SDS011;61528;49.456;11.098;2022-08-02T03:18:33;4.60;;;4.10;;
18661;SDS011;61528;49.456;11.098;2022-08-02T03:21:04;4.30;;;4.00;;
18661;SDS011;61528;49.456;11.098;2022-08-02T03:23:31;4.40;;;4.00;;
18661;SDS011;61528;49.456;11.098;2022-08-02T03:25:57;4.70;;;4.23;;
18661;SDS011;61528;49.456;11.098;2022-08-02T03:28:26;6.07;;;4.13;;
18661;SDS011;61528;49.456;11.098;2022-08-02T03:30:52;4.47;;;4.03;;
18661;SDS011;61528;49.456;11.098;2022-08-02T03:33:19;5.43;;;4.03;;
18661;SDS011;61528;49.456;11.098;2022-08-02T03:35:46;6.27;;;4.17;;
18661;SDS011;61528;49.456;11.098;2022-08-02T03:38:12;4.87;;;4.30;;
18661;SDS011;61528;49.456;11.098;2022-08-02T03:40:40;4.07;;;3.63;;
18661;SDS011;61528;49.456;11.098;2022-08-02T03:43:07;4.63;;;3.80;;
18661;SDS011;61528;49.456;11.098;2022-08-02T03:45:35;4.10;;;3.80;;
18661;SDS011;61528;49.456;11.098;2022-08-02T03:48:02;5.90;;;4.53;;
18661;SDS011;61528;49.456;11.098;2022-08-02T03:50:28;6.67;;;4.53;;
18661;SDS011;61528;49.456;11.098;2022-08-02T03:52:54;4.67;;;4.27;;
18661;SDS011;61528;49.456;11.098;2022-08-02T03:55:21;9.03;;;5.00;;
18661;SDS011;61528;49.456;11.098;2022-08-02T03:57:48;5.50;;;4.93;;
18661;SDS011;61528;49.456;11.098;2022-08-02T04:00:18;5.57;;;4.23;;
18661;SDS011;61528;49.456;11.098;2022-08-02T04:02:44;5.30;;;4.80;;
18661;SDS011;61528;49.456;11.098;2022-08-02T04:05:11;5.53;;;4.70;;
18661;SDS011;61528;49.456;11.098;2022-08-02T04:07:36;5.77;;;4.97;;
18661;SDS011;61528;49.456;11.098;2022-08-02T04:10:03;5.20;;;4.70;;
18661;SDS011;61528;49.456;11.098;2022-08-02T04:12:29;5.57;;;4.93;;
18661;SDS011;61528;49.456;11.098;2022-08-02T04:14:55;5.23;;;4.30;;
18661;SDS011;61528;49.456;11.098;2022-08-02T04:17:22;5.33;;;4.67;;
18661;SDS011;61528;49.456;11.098;2022-08-02T04:19:50;5.27;;;4.77;;
18661;SDS011;61528;49.456;11.098;2022-08-02T04:22:28;5.97;;;4.80;;
18661;SDS011;61528;49.456;11.098;2022-08-02T04:25:02;5.20;;;4.67;;
18661;SDS011;61528;49.456;11.098;2022-08-02T04:27:30;6.27;;;4.93;;
18661;SDS011;61528;49.456;11.098;2022-08-02T04:29:56;7.90;;;4.60;;
18661;SDS011;61528;49.456;11.098;2022-08-02T04:32:24;6.43;;;4.67;;
18661;SDS011;61528;49.456;11.098;2022-08-02T04:34:50;7.70;;;4.53;;
18661;SDS011;61528;49.456;11.098;2022-08-02T04:37:16;5.40;;;4.90;;
18661;SDS011;61528;49.456;11.098;2022-08-02T04:39:42;5.60;;;5.10;;
18661;SDS011;61528;49.456;11.098;2022-08-02T04:42:08;6.27;;;5.10;;
18661;SDS011;61528;49.456;11.098;2022-08-02T04:44:34;5.47;;;4.97;;
18661;SDS011;61528;49.456;11.098;2022-08-02T04:47:00;5.87;;;4.60;;
18661;SDS011;61528;49.456;11.098;2022-08-02T04:49:27;5.83;;;5.27;;
18661;SDS011;61528;49.456;11.098;2022-08-02T04:51:53;5.80;;;4.90;;
18661;SDS011;61528;49.456;11.098;2022-08-02T04:54:20;6.50;;;4.97;;
18661;SDS011;61528;49.456;11.098;2022-08-02T04:56:46;6.23;;;5.13;;
18661;SDS011;61528;49.456;11.098;2022-08-02T04:59:12;7.83;;;5.80;;
18661;SDS011;61528;49.456;11.098;2022-08-02T05:01:38;7.30;;;5.70;;
18661;SDS011;61528;49.456;11.098;2022-08-02T05:04:06;6.53;;;5.07;;
18661;SDS011;61528;49.456;11.098;2022-08-02T05:06:32;7.00;;;5.50;;
18661;SDS011;61528;49.456;11.098;2022-08-02T05:08:58;6.90;;;5.40;;
18661;SDS011;61528;49.456;11.098;2022-08-02T05:11:24;7.80;;;5.57;;
18661;SDS011;61528;49.456;11.098;2022-08-02T05:13:50;7.67;;;5.20;;
18661;SDS011;61528;49.456;11.098;2022-08-02T05:16:16;7.00;;;5.17;;
18661;SDS011;61528;49.456;11.098;2022-08-02T05:18:43;8.73;;;5.40;;
18661;SDS011;61528;49.456;11.098;2022-08-02T05:21:08;5.40;;;4.77;;
18661;SDS011;61528;49.456;11.098;2022-08-02T05:23:34;10.00;;;5.60;;
18661;SDS011;61528;49.456;11.098;2022-08-02T05:26:01;6.07;;;4.80;;
18661;SDS011;61528;49.456;11.098;2022-08-02T05:28:27;7.40;;;5.30;;
18661;SDS011;61528;49.456;11.098;2022-08-02T05:30:53;5.27;;;4.77;;
18661;SDS011;61528;49.456;11.098;2022-08-02T05:33:18;6.83;;;5.30;;
18661;SDS011;61528;49.456;11.098;2022-08-02T05:35:44;8.80;;;5.10;;
18661;SDS011;61528;49.456;11.098;2022-08-02T05:38:10;7.43;;;5.07;;
18661;SDS011;61528;49.456;11.098;2022-08-02T05:40:36;6.17;;;5.13;;
18661;SDS011;61528;49.456;11.098;2022-08-02T05:43:02;13.23;;;6.67;;
18661;SDS011;61528;49.456;11.098;2022-08-02T05:45:35;10.60;;;5.87;;
18661;SDS011;61528;49.456;11.098;2022-08-02T05:48:01;6.77;;;5.63;;
18661;SDS011;61528;49.456;11.098;2022-08-02T05:50:27;7.23;;;5.73;;
18661;SDS011;61528;49.456;11.098;2022-08-02T05:53:03;7.60;;;5.77;;
18661;SDS011;61528;49.456;11.098;2022-08-02T05:55:46;7.27;;;5.57;;
18661;SDS011;61528;49.456;11.098;2022-08-02T05:58:23;6.33;;;5.70;;
18661;SDS011;61528;49.456;11.098;2022-08-02T06:00:59;6.30;;;5.30;;
18661;SDS011;61528;49.456;11.098;2022-08-02T06:03:31;7.57;;;5.37;;
18661;SDS011;61528;49.456;11.098;2022-08-02T06:06:09;7.70;;;5.70;;
18661;SDS011;61528;49.456;11.098;2022-08-02T06:08:38;7.53;;;5.67;;
18661;SDS011;61528;49.456;11.098;2022-08-02T06:11:07;7.00;;;5.20;;
18661;SDS011;61528;49.456;11.098;2022-08-02T06:13:37;6.87;;;5.30;;
18661;SDS011;61528;49.456;11.098;2022-08-02T06:16:04;8.50;;;5.93;;
18661;SDS011;61528;49.456;11.098;2022-08-02T06:18:30;6.20;;;5.03;;
18661;SDS011;61528;49.456;11.098;2022-08-02T06:20:59;7.93;;;5.70;;
18661;SDS011;61528;49.456;11.098;2022-08-02T06:23:27;8.90;;;5.73;;
18661;SDS011;61528;49.456;11.098;2022-08-02T06:25:54;7.40;;;5.90;;
18661;SDS011;61528;49.456;11.098;2022-08-02T06:28:21;7.13;;;6.17;;
18661;SDS011;61528;49.456;11.098;2022-08-02T06:30:47;7.10;;;6.40;;
18661;SDS011;61528;49.456;11.098;2022-08-02T06:33:14;7.47;;;6.57;;
18661;SDS011;61528;49.456;11.098;2022-08-02T06:38:31;11.43;;;7.10;;
18661;SDS011;61528;49.456;11.098;2022-08-02T06:46:17;9.90;;;6.80;;
18661;SDS011;61528;49.456;11.098;2022-08-02T06:48:43;9.70;;;7.33;;
18661;SDS011;61528;49.456;11.098;2022-08-02T06:51:10;13.37;;;6.77;;
18661;SDS011;61528;49.456;11.098;2022-08-02T06:53:37;9.77;;;7.13;;
18661;SDS011;61528;49.456;11.098;2022-08-02T06:56:03;9.87;;;6.53;;
18661;SDS011;61528;49.456;11.098;2022-08-02T06:58:29;9.03;;;7.00;;
18661;SDS011;61528;49.456;11.098;2022-08-02T07:00:55;11.37;;;7.50;;
18661;SDS011;61528;49.456;11.098;2022-08-02T07:03:21;7.10;;;6.37;;
18661;SDS011;61528;49.456;11.098;2022-08-02T07:05:49;8.67;;;6.83;;
18661;SDS011;61528;49.456;11.098;2022-08-02T07:08:16;11.13;;;7.43;;
18661;SDS011;61528;49.456;11.098;2022-08-02T07:10:42;10.80;;;7.93;;
18661;SDS011;61528;49.456;11.098;2022-08-02T07:13:09;8.17;;;7.37;;
18661;SDS011;61528;49.456;11.098;2022-08-02T07:15:38;11.57;;;7.50;;
18661;SDS011;61528;49.456;11.098;2022-08-02T07:18:04;8.60;;;6.83;;
18661;SDS011;61528;49.456;11.098;2022-08-02T07:20:31;7.90;;;7.10;;
18661;SDS011;61528;49.456;11.098;2022-08-02T07:22:57;10.10;;;7.30;;
18661;SDS011;61528;49.456;11.098;2022-08-02T07:25:23;8.60;;;7.37;;
18661;SDS011;61528;49.456;11.098;2022-08-02T07:27:49;8.70;;;7.00;;
18661;SDS011;61528;49.456;11.098;2022-08-02T07:30:15;10.83;;;7.10;;
18661;SDS011;61528;49.456;11.098;2022-08-02T07:32:41;9.00;;;6.60;;
18661;SDS011;61528;49.456;11.098;2022-08-02T07:35:07;8.50;;;6.53;;
18661;SDS011;61528;49.456;11.098;2022-08-02T07:37:34;8.73;;;7.27;;
18661;SDS011;61528;49.456;11.098;2022-08-02T07:40:03;11.00;;;7.83;;
18661;SDS011;61528;49.456;11.098;2022-08-02T07:42:30;8.60;;;6.63;;
18661;SDS011;61528;49.456;11.098;2022-08-02T07:44:56;9.47;;;6.70;;
18661;SDS011;61528;49.456;11.098;2022-08-02T07:47:22;8.43;;;6.20;;
18661;SDS011;61528;49.456;11.098;2022-08-02T07:49:49;11.37;;;7.00;;
18661;SDS011;61528;49.456;11.098;2022-08-02T07:52:16;10.27;;;6.47;;
18661;SDS011;61528;49.456;11.098;2022-08-02T07:54:44;9.57;;;7.87;;
18661;SDS011;61528;49.456;11.098;2022-08-02T07:57:11;9.10;;;7.10;;
18661;SDS011;61528;49.456;11.098;2022-08-02T07:59:38;9.93;;;6.33;;
18661;SDS011;61528;49.456;11.098;2022-08-02T08:02:06;10.07;;;8.37;;
18661;SDS011;61528;49.456;11.098;2022-08-02T08:04:33;7.43;;;6.47;;
18661;SDS011;61528;49.456;11.098;2022-08-02T08:07:01;9.37;;;6.60;;
18661;SDS011;61528;49.456;11.098;2022-08-02T08:09:30;8.60;;;6.40;;
18661;SDS011;61528;49.456;11.098;2022-08-02T08:11:57;10.77;;;6.40;;
18661;SDS011;61528;49.456;11.098;2022-08-02T08:14:23;9.63;;;7.13;;
18661;SDS011;61528;49.456;11.098;2022-08-02T08:16:49;11.63;;;7.47;;
18661;SDS011;61528;49.456;11.098;2022-08-02T08:19:15;8.40;;;6.40;;
18661;SDS011;61528;49.456;11.098;2022-08-02T08:21:42;9.63;;;7.00;;
18661;SDS011;61528;49.456;11.098;2022-08-02T08:24:08;9.20;;;6.27;;
18661;SDS011;61528;49.456;11.098;2022-08-02T08:26:34;10.10;;;6.83;;
18661;SDS011;61528;49.456;11.098;2022-08-02T08:29:00;9.23;;;6.10;;
18661;SDS011;61528;49.456;11.098;2022-08-02T08:31:27;8.07;;;6.23;;
18661;SDS011;61528;49.456;11.098;2022-08-02T08:33:53;7.23;;;6.17;;
18661;SDS011;61528;49.456;11.098;2022-08-02T08:36:20;7.30;;;6.60;;
18661;SDS011;61528;49.456;11.098;2022-08-02T08:38:46;7.73;;;6.00;;
18661;SDS011;61528;49.456;11.098;2022-08-02T08:41:14;7.93;;;6.33;;
18661;SDS011;61528;49.456;11.098;2022-08-02T08:43:41;7.23;;;6.50;;
18661;SDS011;61528;49.456;11.098;2022-08-02T08:46:08;7.07;;;6.37;;
18661;SDS011;61528;49.456;11.098;2022-08-02T08:48:36;8.23;;;5.93;;
18661;SDS011;61528;49.456;11.098;2022-08-02T08:51:15;7.37;;;5.70;;
18661;SDS011;61528;49.456;11.098;2022-08-02T08:53:43;5.57;;;5.07;;
18661;SDS011;61528;49.456;11.098;2022-08-02T08:56:12;7.43;;;6.00;;
18661;SDS011;61528;49.456;11.098;2022-08-02T08:58:39;5.97;;;5.37;;
18661;SDS011;61528;49.456;11.098;2022-08-02T09:01:06;6.77;;;6.07;;
18661;SDS011;61528;49.456;11.098;2022-08-02T09:03:32;6.10;;;5.53;;
18661;SDS011;61528;49.456;11.098;2022-08-02T09:05:58;5.47;;;4.97;;
18661;SDS011;61528;49.456;11.098;2022-08-02T09:08:24;6.17;;;5.30;;
18661;SDS011;61528;49.456;11.098;2022-08-02T09:10:51;8.77;;;6.77;;
18661;SDS011;61528;49.456;11.098;2022-08-02T09:13:19;6.50;;;5.90;;
18661;SDS011;61528;49.456;11.098;2022-08-02T09:15:51;6.67;;;5.83;;
18661;SDS011;61528;49.456;11.098;2022-08-02T09:18:17;8.27;;;5.73;;
18661;SDS011;61528;49.456;11.098;2022-08-02T09:20:51;6.33;;;5.40;;
18661;SDS011;61528;49.456;11.098;2022-08-02T09:23:17;5.83;;;5.33;;
18661;SDS011;61528;49.456;11.098;2022-08-02T09:26:05;6.50;;;5.90;;
18661;SDS011;61528;49.456;11.098;2022-08-02T09:28:31;6.17;;;5.57;;
18661;SDS011;61528;49.456;11.098;2022-08-02T09:31:02;6.80;;;5.57;;
18661;SDS011;61528;49.456;11.098;2022-08-02T09:33:28;6.43;;;5.40;;
18661;SDS011;61528;49.456;11.098;2022-08-02T09:36:05;6.20;;;5.23;;
18661;SDS011;61528;49.456;11.098;2022-08-02T09:38:32;5.47;;;4.97;;
18661;SDS011;61528;49.456;11.098;2022-08-02T09:40:58;5.80;;;5.20;;
18661;SDS011;61528;49.456;11.098;2022-08-02T09:43:38;5.30;;;4.90;;
18661;SDS011;61528;49.456;11.098;2022-08-02T09:46:11;5.40;;;4.90;;
18661;SDS011;61528;49.456;11.098;2022-08-02T09:51:21;4.93;;;4.43;;
18661;SDS011;61528;49.456;11.098;2022-08-02T09:54:02;4.63;;;4.23;;
18661;SDS011;61528;49.456;11.098;2022-08-02T09:56:38;4.67;;;4.27;;
18661;SDS011;61528;49.456;11.098;2022-08-02T09:59:07;4.57;;;4.17;;
18661;SDS011;61528;49.456;11.098;2022-08-02T10:01:34;4.40;;;4.00;;
18661;SDS011;61528;49.456;11.098;2022-08-02T10:04:02;5.27;;;4.30;;
18661;SDS011;61528;49.456;11.098;2022-08-02T10:06:29;5.10;;;4.40;;
18661;SDS011;61528;49.456;11.098;2022-08-02T10:08:56;4.40;;;4.03;;
18661;SDS011;61528;49.456;11.098;2022-08-02T10:11:23;4.13;;;3.73;;
18661;SDS011;61528;49.456;11.098;2022-08-02T10:13:51;4.47;;;3.80;;
18661;SDS011;61528;49.456;11.098;2022-08-02T10:16:18;4.27;;;3.87;;
18661;SDS011;61528;49.456;11.098;2022-08-02T10:18:48;5.03;;;4.00;;
18661;SDS011;61528;49.456;11.098;2022-08-02T10:21:18;4.17;;;3.87;;
18661;SDS011;61528;49.456;11.098;2022-08-02T10:23:45;4.37;;;3.60;;
18661;SDS011;61528;49.456;11.098;2022-08-02T10:26:14;4.03;;;3.73;;
18661;SDS011;61528;49.456;11.098;2022-08-02T10:28:40;4.20;;;3.60;;
18661;SDS011;61528;49.456;11.098;2022-08-02T10:31:07;4.07;;;3.60;;
18661;SDS011;61528;49.456;11.098;2022-08-02T10:33:35;4.73;;;4.23;;
18661;SDS011;61528;49.456;11.098;2022-08-02T10:36:02;3.93;;;3.50;;
18661;SDS011;61528;49.456;11.098;2022-08-02T10:38:29;4.20;;;3.80;;
18661;SDS011;61528;49.456;11.098;2022-08-02T10:40:55;3.67;;;3.37;;
18661;SDS011;61528;49.456;11.098;2022-08-02T10:49:01;4.13;;;3.57;;
18661;SDS011;61528;49.456;11.098;2022-08-02T10:54:16;4.50;;;3.93;;
18661;SDS011;61528;49.456;11.098;2022-08-02T10:56:45;4.70;;;3.33;;
18661;SDS011;61528;49.456;11.098;2022-08-02T10:59:25;3.80;;;3.50;;
18661;SDS011;61528;49.456;11.098;2022-08-02T11:01:51;3.23;;;3.03;;
18661;SDS011;61528;49.456;11.098;2022-08-02T11:04:26;3.77;;;3.33;;
18661;SDS011;61528;49.456;11.098;2022-08-02T11:09:38;4.23;;;3.50;;
18661;SDS011;61528;49.456;11.098;2022-08-02T11:12:05;3.30;;;3.00;;
18661;SDS011;61528;49.456;11.098;2022-08-02T11:14:34;3.10;;;2.80;;
18661;SDS011;61528;49.456;11.098;2022-08-02T11:19:30;5.10;;;3.50;;
18661;SDS011;61528;49.456;11.098;2022-08-02T11:22:12;3.90;;;3.33;;
18661;SDS011;61528;49.456;11.098;2022-08-02T11:24:43;5.30;;;3.10;;
18661;SDS011;61528;49.456;11.098;2022-08-02T11:27:18;4.60;;;3.10;;
18661;SDS011;61528;49.456;11.098;2022-08-02T11:29:45;3.50;;;3.20;;
18661;SDS011;61528;49.456;11.098;2022-08-02T11:32:16;4.20;;;3.57;;
18661;SDS011;61528;49.456;11.098;2022-08-02T11:34:47;3.50;;;3.20;;
18661;SDS011;61528;49.456;11.098;2022-08-02T11:37:29;3.20;;;2.90;;
18661;SDS011;61528;49.456;11.098;2022-08-02T11:39:56;3.80;;;3.20;;
18661;SDS011;61528;49.456;11.098;2022-08-02T11:42:29;3.30;;;3.00;;
18661;SDS011;61528;49.456;11.098;2022-08-02T11:44:59;3.13;;;2.90;;
18661;SDS011;61528;49.456;11.098;2022-08-02T11:47:26;3.77;;;3.40;;
18661;SDS011;61528;49.456;11.098;2022-08-02T11:50:02;3.77;;;3.30;;
18661;SDS011;61528;49.456;11.098;2022-08-02T11:52:32;3.73;;;3.10;;
18661;SDS011;61528;49.456;11.098;2022-08-02T11:54:59;3.53;;;3.30;;
18661;SDS011;61528;49.456;11.098;2022-08-02T11:57:26;4.53;;;3.30;;
18661;SDS011;61528;49.456;11.098;2022-08-02T11:59:54;3.50;;;3.20;;
18661;SDS011;61528;49.456;11.098;2022-08-02T12:02:21;3.37;;;3.07;;
18661;SDS011;61528;49.456;11.098;2022-08-02T12:05:06;2.77;;;2.57;;
18661;SDS011;61528;49.456;11.098;2022-08-02T12:07:33;3.53;;;3.23;;
18661;SDS011;61528;49.456;11.098;2022-08-02T12:10:00;3.67;;;3.37;;
18661;SDS011;61528;49.456;11.098;2022-08-02T12:12:27;3.30;;;3.00;;
18661;SDS011;61528;49.456;11.098;2022-08-02T12:14:53;3.53;;;3.00;;
18661;SDS011;61528;49.456;11.098;2022-08-02T12:17:26;3.43;;;3.23;;
18661;SDS011;61528;49.456;11.098;2022-08-02T12:20:11;2.90;;;2.70;;
18661;SDS011;61528;49.456;11.098;2022-08-02T12:22:38;2.83;;;2.63;;
18661;SDS011;61528;49.456;11.098;2022-08-02T12:25:17;2.80;;;2.60;;
18661;SDS011;61528;49.456;11.098;2022-08-02T12:27:44;3.00;;;2.80;;
18661;SDS011;61528;49.456;11.098;2022-08-02T12:30:11;3.20;;;2.90;;
18661;SDS011;61528;49.456;11.098;2022-08-02T12:32:38;3.30;;;2.80;;
18661;SDS011;61528;49.456;11.098;2022-08-02T12:35:06;3.17;;;2.97;;
18661;SDS011;61528;49.456;11.098;2022-08-02T12:37:32;2.83;;;2.63;;
18661;SDS011;61528;49.456;11.098;2022-08-02T12:39:58;2.90;;;2.70;;
18661;SDS011;61528;49.456;11.098;2022-08-02T12:42:49;2.83;;;2.50;;
18661;SDS011;61528;49.456;11.098;2022-08-02T12:45:15;2.60;;;2.40;;
18661;SDS011;61528;49.456;11.098;2022-08-02T12:47:45;4.38;;;2.60;;
18661;SDS011;61528;49.456;11.098;2022-08-02T12:50:26;2.97;;;2.50;;
18661;SDS011;61528;49.456;11.098;2022-08-02T12:53:16;3.25;;;2.53;;
18661;SDS011;61528;49.456;11.098;2022-08-02T12:55:53;2.50;;;2.30;;
18661;SDS011;61528;49.456;11.098;2022-08-02T12:58:20;2.38;;;2.28;;
18661;SDS011;61528;49.456;11.098;2022-08-02T13:00:56;2.70;;;2.50;;
18661;SDS011;61528;49.456;11.098;2022-08-02T13:03:23;2.58;;;2.38;;
18661;SDS011;61528;49.456;11.098;2022-08-02T13:05:50;3.05;;;2.50;;
18661;SDS011;61528;49.456;11.098;2022-08-02T13:08:17;2.60;;;2.40;;
18661;SDS011;61528;49.456;11.098;2022-08-02T13:10:43;2.22;;;2.13;;
18661;SDS011;61528;49.456;11.098;2022-08-02T13:13:09;2.80;;;2.13;;
18661;SDS011;61528;49.456;11.098;2022-08-02T13:15:36;4.88;;;2.65;;
18661;SDS011;61528;49.456;11.098;2022-08-02T13:18:03;3.30;;;2.38;;
18661;SDS011;61528;49.456;11.098;2022-08-02T13:20:30;2.35;;;2.22;;
18661;SDS011;61528;49.456;11.098;2022-08-02T13:22:56;2.42;;;2.30;;
18661;SDS011;61528;49.456;11.098;2022-08-02T13:25:22;2.90;;;2.70;;
18661;SDS011;61528;49.456;11.098;2022-08-02T13:27:49;2.50;;;2.35;;
18661;SDS011;61528;49.456;11.098;2022-08-02T13:30:15;2.85;;;2.60;;
18661;SDS011;61528;49.456;11.098;2022-08-02T13:32:42;2.35;;;2.25;;
18661;SDS011;61528;49.456;11.098;2022-08-02T13:35:08;2.67;;;2.38;;
18661;SDS011;61528;49.456;11.098;2022-08-02T13:37:34;2.60;;;2.40;;
18661;SDS011;61528;49.456;11.098;2022-08-02T13:40:00;2.40;;;2.20;;
18661;SDS011;61528;49.456;11.098;2022-08-02T13:42:28;3.08;;;2.38;;
18661;SDS011;61528;49.456;11.098;2022-08-02T13:44:55;2.60;;;2.40;;
18661;SDS011;61528;49.456;11.098;2022-08-02T13:47:21;2.13;;;2.03;;
18661;SDS011;61528;49.456;11.098;2022-08-02T13:49:47;2.20;;;2.10;;
18661;SDS011;61528;49.456;11.098;2022-08-02T13:52:14;2.33;;;2.22;;
18661;SDS011;61528;49.456;11.098;2022-08-02T13:54:41;2.50;;;2.30;;
18661;SDS011;61528;49.456;11.098;2022-08-02T13:57:07;2.33;;;2.13;;
18661;SDS011;61528;49.456;11.098;2022-08-02T13:59:33;3.38;;;2.25;;
18661;SDS011;61528;49.456;11.098;2022-08-02T14:02:00;3.45;;;3.15;;
18661;SDS011;61528;49.456;11.098;2022-08-02T14:04:26;2.78;;;2.58;;
18661;SDS011;61528;49.456;11.098;2022-08-02T14:06:55;2.53;;;2.33;;
18661;SDS011;61528;49.456;11.098;2022-08-02T14:09:22;6.03;;;3.72;;
18661;SDS011;61528;49.456;11.098;2022-08-02T14:11:48;2.97;;;2.70;;
18661;SDS011;61528;49.456;11.098;2022-08-02T14:14:15;2.35;;;2.15;;
18661;SDS011;61528;49.456;11.098;2022-08-02T14:16:41;2.20;;;2.00;;
18661;SDS011;61528;49.456;11.098;2022-08-02T14:19:08;2.40;;;2.10;;
18661;SDS011;61528;49.456;11.098;2022-08-02T14:21:34;2.33;;;2.13;;
18661;SDS011;61528;49.456;11.098;2022-08-02T14:24:00;3.60;;;2.10;;
18661;SDS011;61528;49.456;11.098;2022-08-02T14:26:27;2.17;;;2.08;;
18661;SDS011;61528;49.456;11.098;2022-08-02T14:28:54;3.60;;;2.00;;
18661;SDS011;61528;49.456;11.098;2022-08-02T14:31:20;3.75;;;3.45;;
18661;SDS011;61528;49.456;11.098;2022-08-02T14:33:46;2.30;;;2.17;;
18661;SDS011;61528;49.456;11.098;2022-08-02T14:36:13;2.10;;;1.90;;
18661;SDS011;61528;49.456;11.098;2022-08-02T14:38:39;2.42;;;1.92;;
18661;SDS011;61528;49.456;11.098;2022-08-02T14:41:05;2.88;;;2.03;;
18661;SDS011;61528;49.456;11.098;2022-08-02T14:43:32;2.63;;;2.17;;
18661;SDS011;61528;49.456;11.098;2022-08-02T14:46:17;2.75;;;2.10;;
18661;SDS011;61528;49.456;11.098;2022-08-02T14:48:44;2.47;;;2.33;;
18661;SDS011;61528;49.456;11.098;2022-08-02T14:51:10;3.45;;;2.58;;
18661;SDS011;61528;49.456;11.098;2022-08-02T14:53:38;3.70;;;3.40;;
18661;SDS011;61528;49.456;11.098;2022-08-02T14:56:04;2.55;;;2.17;;
18661;SDS011;61528;49.456;11.098;2022-08-02T14:58:31;3.30;;;2.00;;
18661;SDS011;61528;49.456;11.098;2022-08-02T15:00:57;2.15;;;2.05;;
18661;SDS011;61528;49.456;11.098;2022-08-02T15:03:23;2.42;;;2.22;;
18661;SDS011;61528;49.456;11.098;2022-08-02T15:05:49;2.00;;;1.90;;
18661;SDS011;61528;49.456;11.098;2022-08-02T15:08:15;4.05;;;2.15;;
18661;SDS011;61528;49.456;11.098;2022-08-02T15:10:42;2.40;;;2.20;;
18661;SDS011;61528;49.456;11.098;2022-08-02T15:13:08;2.42;;;1.98;;
18661;SDS011;61528;49.456;11.098;2022-08-02T15:15:35;2.17;;;2.00;;
18661;SDS011;61528;49.456;11.098;2022-08-02T15:18:01;2.33;;;2.05;;